Aviation Digital Data Service (ADDS)

Output produced by METARs form (1838 UTC 18 June 2019)
found at http://www.aviationweather.gov/metar/data/
 
KAST 181755Z AUTO 32010KT 10SM OVC027 15/10 A3029 RMK AO2 SLP256 T01500100 10150 20133 51005
KAST 181729Z 1818/1918 32010KT P6SM OVC025 
     FM182100 31012G20KT P6SM SCT025 BKN040 
     FM190400 31010KT P6SM SCT007 OVC015 
     FM191400 32008KT P6SM OVC021
       
KUAO 181753Z 31007KT 10SM OVC038 19/11 A3024 RMK AO2 SLP240 T01940106 10211 20150 58001
KUAO 181729Z 1818/1918 33006KT P6SM OVC035 
     FM181930 35006KT P6SM SCT040 
     FM190100 35010G16KT P6SM SCT250 
     FM190400 35006KT P6SM SCT250 
     FM191300 01004KT P6SM SCT015
       
KBKE 181753Z AUTO 36009KT 10SM CLR 24/09 A3010 RMK AO2 SLP172 T02390094 10239 20078 56001
KBKE 181720Z 1818/1918 VRB06KT P6SM SKC 
     FM182000 32012G21KT P6SM SKC 
     FM190300 28010KT P6SM SKC
       
KBDN 181835Z AUTO VRB06G12KT 10SM CLR 25/02 A3014 RMK AO2
KBDN 181720Z 1818/1918 35010KT P6SM FEW250 
     FM182000 35014G24KT P6SM FEW250 
     FM190400 35007KT P6SM FEW250 
     FM190800 VRB06KT P6SM FEW250 
     FM191600 25008KT P6SM FEW250
       
KBNO 181753Z AUTO 26008KT 10SM CLR 24/04 A3014 RMK AO2 SLP176 T02440044 10250 20089 58008
KBNO 181720Z 1818/1918 25008KT P6SM SKC 
     FM181900 28013G20KT P6SM SKC 
     FM190300 29008KT P6SM SKC
       
KCVO 181756Z AUTO VRB03KT 10SM FEW030 BKN038 21/12 A3023 RMK AO2 SLP237 T02060122 10206 20122 58004
KEUG 181754Z 02011KT 10SM SCT027 SCT044 22/13 A3023 RMK AO2 SLP235 T02220133 10222 20122 58001
KEUG 181729Z 1818/1918 01011G17KT P6SM SCT025 BKN250 
     FM182000 01014G21KT P6SM SCT250 
     FM190400 36007KT P6SM SCT250 
     FM191000 34004KT P6SM SKC 
     FM191700 02012KT P6SM FEW015
       
K4S1 181835Z AUTO 01016G26KT 5SM HZ CLR 17/12 A3013 RMK AO2
K3S8 181815Z AUTO VRB05G11KT 10SM CLR 26/12 A3015 RMK AO2 PWINO
KHRI 181753Z AUTO 26011KT 10SM CLR 27/12 A3004 RMK AO2 SLP166 T02670117 10267 20178 50001
K4S2 181835Z AUTO 30018G24KT 5SM HZ CLR 20/10 A3015 RMK AO2
KGCD 181835Z AUTO 26009KT 10SM CLR 23/05 A3014 RMK AO2 T02300054
KLMT 181753Z VRB04KT 10SM CLR 23/05 A3018 RMK AO2 SLP181 T02330050 10233 20067 58010
KLMT 181732Z 1818/1918 VRB04KT P6SM SKC 
     FM182200 33010G18KT P6SM SKC 
     FM190500 34006KT P6SM SKC
       
KLGD 181756Z AUTO 33009KT 10SM CLR 23/09 A3009 RMK AO2 SLP321 T02280089 10233 20139 58003
KLKV 181753Z AUTO 35003KT 10SM CLR 22/04 A3021 RMK AO2 SLP198 T02220044 10228 20083 58007
KS33 181835Z AUTO 00000KT 10SM CLR 23/08 A3015 RMK AO2
KMMV 181753Z AUTO 30005KT 10SM OVC040 19/11 A3023 RMK AO2 SLP236 T01940111 10200 20117 58002
KMFR 181753Z 01006KT 10SM CLR 26/09 A3013 RMK AO2 SLP193 T02560094 10256 20139 58012
KMFR 181732Z 1818/1918 VRB03KT P6SM SKC 
     FM190000 33010KT P6SM SKC 
     FM190400 35004KT P6SM SKC
       
KONP 181810Z AUTO 33014G18KT 10SM CLR 16/11 A3031 RMK AO2
KONP 181729Z 1818/1918 35011KT P6SM SCT012 
     FM182000 34017G24KT P6SM SCT015 BKN250 
     FM190400 35010KT P6SM SCT007 
     FM190700 36004KT 3SM BR OVC005 
     FM191500 02007KT P6SM SCT005
       
KOTH 181756Z 35020G25KT 10SM CLR 16/13 A3025 RMK AO2 PK WND 35026/1738 SLP244 T01610128 10172 20117 53000
KOTH 181732Z 1818/1918 34010G15KT P6SM SCT008 
     FM182000 35024G34KT P6SM SKC 
     FM190200 35020G30KT P6SM BKN010 
     FM190500 36015G20KT P6SM OVC006 
     FM191300 02006KT P6SM OVC015
       
KONO 181753Z AUTO 17005KT 10SM CLR 28/09 A3001 RMK AO2 SLP144 T02830089 10294 20189 58011
KPDT 181753Z 28010G20KT 10SM CLR 25/09 A3006 RMK AO2 SLP163 T02500094 10250 20161 57001
KPDT 181720Z 1818/1918 25012G20KT P6SM FEW060 FEW250 
     FM182000 25018G28KT P6SM FEW250 
     FM190500 28015G25KT P6SM FEW250 
     FM191700 27022G32KT P6SM FEW250
       
KPDX 181753Z 31011G16KT 10SM BKN030 19/10 A3024 RMK AO2 SLP239 T01890100 10194 20161 50000
KPDX 181729Z 1818/1918 32007KT P6SM BKN035 BKN050 
     FM182100 30010KT P6SM SCT040 
     FM190200 33013G19KT P6SM SCT250 
     FM190700 32007KT P6SM SCT250 
     FM191100 31005KT P6SM OVC015
       
KHIO 181753Z 35012G17KT 310V010 10SM SCT030 19/10 A3024 RMK AO2 SLP238 T01890100 10194 20133 50002
KHIO 181729Z 1818/1918 33005KT P6SM BKN029 BKN050 
     FM181900 32007KT P6SM SCT030 BKN050 
     FM182100 33008KT P6SM SCT035 
     FM190000 33013G19KT P6SM SCT250 
     FM190400 32010KT P6SM SCT250 
     FM190800 29003KT P6SM SCT250
       
KTTD 181753Z 32005KT 10SM OVC030 19/11 A3023 RMK AO2 SLP237 T01890111 10194 20156 58002
KTTD 181729Z 1818/1918 31006KT P6SM OVC035 
     FM182000 30007KT P6SM SCT040 
     FM190200 31007KT P6SM SCT250 
     FM191100 26003KT P6SM OVC015
       
KS39 181820Z AUTO 27011KT 10SM CLR 23/04 A3015 RMK AO2
KRDM 181756Z 33011G15KT 10SM CLR 24/08 A3014 RMK AO2 SLP185 T02390078 10239 20094 56008
KRDM 181720Z 1818/1918 33010KT P6SM FEW250 
     FM182000 33014G24KT P6SM FEW250 
     FM190400 33007KT P6SM FEW250 
     FM190700 VRB06KT P6SM FEW250 
     FM191500 29010KT P6SM FEW250
       
KRBG 181753Z AUTO 02011KT 10SM CLR 24/11 A3018 RMK AO2 SLP217 T02390111 10239 20167 58006
KRBG 181732Z 1818/1918 01010G18KT P6SM SKC 
     FM190400 35006KT P6SM SKC
       
KSLE 181756Z 02008KT 10SM BKN030 BKN042 20/11 A3023 RMK AO2 SLP234 T02000106 10200 20139 58002
KSLE 181729Z 1818/1918 36007KT P6SM BKN035 
     FM181900 36008KT P6SM SCT040 
     FM182200 36010G17KT P6SM SCT250 
     FM190300 32008KT P6SM SCT250 
     FM191400 33004KT P6SM SCT015
       
KSPB 181753Z AUTO 29008G14KT 10SM OVC032 18/10 A3024 RMK AO2 SLP240 T01830100 10183 20139 51004
KDLS 181753Z AUTO 29018G26KT 10SM CLR 23/11 A3010 RMK AO2 PK WND 32033/1723 SLP191 T02280106 10228 20172 50008
KDLS 181720Z 1818/1918 30020G30KT P6SM SCT250 
     FM182000 30025G35KT P6SM FEW250 
     FM190400 30018G28KT P6SM FEW250 
     FM191700 31025G35KT P6SM FEW250
       
KTMK 181815Z AUTO 30017KT 10SM CLR 18/10 A3030 RMK AO2